• Join FlightAware (Why Join?)
  • Login
  • US Flag 
12:15AM EST


 

Airport Tracker/Info


-or-


 

Live Flight TrackerFlight Track Log ✈ GJS3706 ✈ 02-Jul-2013 ✈ KORD - KALB

Flight Track Log - Related Links

Times and Time Zones

All times are in EDT time to prevent confusion due to time zone crossing. See the GJS3706 flight status page for this flight to view local times or setup timezone preferences in your user account.

Time Position Orientation Groundspeed Altitude Reporting Facility
EDT Latitude Longitude Course Direction KTS MPH feet Rate Location/Type
09:03AM 42.0167 -87.8667 71° East 159 183 2,300  Level Chicago TRACON
09:04AM 42.0333 -87.8000 71° East 225 259 4,800 1,320 Climbing Chicago TRACON
09:05AM 42.0669 -87.7303 57° Northeast 228 262 5,000 1,200 Climbing Chicago Center
09:06AM 42.0992 -87.6461 63° Northeast 248 285 7,200 2,400 Climbing Chicago Center
09:07AM 42.1328 -87.5592 62° Northeast 262 302 10,000 2,700 Climbing Chicago Center
09:08AM 42.1683 -87.4333 69° East 297 342 12,800 2,280 Climbing Chicago Center
09:09AM 42.2025 -87.3158 69° East 333 383 14,800 1,980 Climbing Chicago Center
09:10AM 42.2394 -87.1950 68° East 347 399 17,000 1,680 Climbing Chicago Center
09:11AM 42.2750 -87.0703 69° East 356 410 18,300 1,440 Climbing Chicago Center
09:12AM 42.2833 -86.9336 85° East 364 419 20,000 1,380 Climbing Chicago Center
09:13AM 42.2894 -86.7947 87° East 372 428 21,200 1,620 Climbing Chicago Center
09:14AM 42.2956 -86.6256 87° East 388 447 23,400 1,740 Climbing Chicago Center
09:15AM 42.3014 -86.4847 87° East 397 457 24,800 1,320 Climbing Chicago Center
09:16AM 42.3072 -86.3331 87° East 405 466 26,200 1,260 Climbing Chicago Center
09:17AM 42.3119 -86.1769 88° East 416 479 27,500 1,020 Climbing Chicago Center
09:18AM 42.3133 -85.9842 89° East 431 496 28,400 960 Climbing Chicago Center
09:19AM 42.3117 -85.8172 91° East 446 513 29,600 1,080 Climbing Chicago Center
09:20AM 42.3100 -85.6506 91° East 447 514 30,700 960 Climbing Chicago Center
09:21AM 42.3075 -85.4781 91° East 458 527 31,600 1,200 Climbing Chicago Center
09:22AM 42.3061 -85.3067 91° East 461 531 33,200 1,560 Climbing Chicago Center
09:23AM 42.3028 -85.1069 91° East 450 518 34,900 840 Climbing Chicago Center
09:25AM 42.2978 -84.9389 92° East 449 517 35,000  Climbing Chicago Center
09:26AM 42.3061 -84.7692 86° East 454 522 35,000  Level Chicago Center
09:27AM 42.3214 -84.6000 83° East 456 525 35,000  Level Chicago Center
09:28AM 42.3367 -84.4278 83° East 462 532 35,000 120 Level Chicago Center
09:29AM 42.3517 -84.2514 83° East 471 542 35,300 720 Climbing Chicago Center
09:30AM 42.3692 -84.0392 84° East 475 547 36,500 1,020 Climbing Chicago Center
09:31AM 42.3844 -83.8636 83° East 473 544 37,500 840 Climbing Chicago Center
09:32AM 42.4031 -83.6342 84° East 465 535 38,500 600 Climbing Cleveland Center
09:33AM 42.4133 -83.4744 85° East 459 528 39,000 240 Climbing Cleveland Center
09:34AM 42.4281 -83.2978 83° East 459 528 39,000  Level Cleveland Center
09:35AM 42.4431 -83.0958 84° East 479 551 39,000  Level Cleveland Center
09:36AM 42.4533 -82.9161 86° East 479 551 39,000  Level Cleveland Center
09:37AM 42.4672 -82.7364 84° East 479 551 39,000  Level Cleveland Center
09:38AM 42.4808 -82.5567 84° East 479 551 39,000  Level Cleveland Center
09:39AM 42.4919 -82.3769 85° East 479 551 39,000  Level Cleveland Center
09:40AM 42.5031 -82.1997 85° East 474 545 39,000  Level Cleveland Center
09:41AM 42.5136 -82.0281 85° East 474 545 39,000  Level Cleveland Center
09:42AM 42.5261 -81.8481 85° East 474 545 39,000  Level Cleveland Center
09:43AM 42.5383 -81.6708 85° East 480 552 39,000  Level Cleveland Center
09:44AM 42.5483 -81.5047 85° East 473 544 39,000  Level Cleveland Center
09:45AM 42.5600 -81.3303 85° East 473 544 39,000  Level Cleveland Center
09:46AM 42.5692 -81.1500 86° East 478 550 39,000  Level Cleveland Center
09:47AM 42.5783 -80.9722 86° East 478 550 39,000  Level Cleveland Center
09:48AM 42.5892 -80.7919 85° East 478 550 39,000  Level Cleveland Center
09:49AM 42.5978 -80.6114 86° East 483 556 39,000  Level Cleveland Center
09:50AM 42.6081 -80.4139 86° East 483 556 39,000  Level Cleveland Center
09:51AM 42.6161 -80.2306 87° East 477 549 39,000  Level Cleveland Center
09:52AM 42.6258 -80.0500 86° East 483 556 39,000  Level Cleveland Center
09:53AM 42.6331 -79.8833 87° East 483 556 39,000  Level Cleveland Center
09:54AM 42.6422 -79.6828 86° East 477 549 39,000  Level Cleveland Center
09:55AM 42.6489 -79.4992 87° East 477 549 39,000  Level Cleveland Center
09:56AM 42.6575 -79.3183 86° East 477 549 39,000  Level Cleveland Center
09:57AM 42.6619 -79.1544 88° East 477 549 39,000  Level Cleveland Center
09:58AM 42.6719 -78.9708 86° East 482 555 39,000  Level Cleveland Center
09:59AM 42.6794 -78.7644 87° East 487 560 39,000  Level Cleveland Center
10:00AM 42.6847 -78.5778 88° East 501 577 39,000 -300 Level Cleveland Center
10:01AM 42.6919 -78.4025 87° East 499 574 38,400 -900 Descending Cleveland Center
10:02AM 42.6986 -78.2214 87° East 493 567 37,300 -1,020 Descending Cleveland Center
10:03AM 42.7006 -78.0178 89° East 493 567 36,400 -1,200 Descending Cleveland Center
10:04AM 42.7111 -77.8394 85° East 493 567 35,000 -1,320 Descending Cleveland Center
10:05AM 42.7172 -77.6639 87° East 472 543 33,800 -1,200 Descending Cleveland Center
10:06AM 42.7208 -77.4800 88° East 472 543 32,600 -1,260 Descending Cleveland Center
10:08AM 42.7286 -77.1358 88° East 492 566 30,300 -1,320 Descending Boston Center
10:09AM 42.7319 -76.9522 89° East 497 572 29,000 -660 Descending Boston Center
10:10AM 42.7350 -76.7658 89° East 497 572 29,000  Level Boston Center
10:11AM 42.7375 -76.5878 89° East 492 566 29,000  Level Boston Center
10:12AM 42.7378 -76.4039 90° East 487 560 29,000 -600 Level Boston Center
10:13AM 42.7400 -76.2144 89° East 487 560 27,800 -1,200 Descending Boston Center
10:14AM 42.7475 -76.0453 86° East 475 547 26,600 -1,500 Descending Boston Center
10:15AM 42.7447 -75.8697 91° East 470 541 24,900 -1,740 Descending Boston Center
10:16AM 42.7478 -75.6975 89° East 459 528 23,200 -1,740 Descending Boston Center
10:17AM 42.7442 -75.5275 92° East 453 521 21,500 -1,740 Descending Boston Center
10:18AM 42.7219 -75.3428 99° East 431 496 19,400 -1,740 Descending Boston Center
10:19AM 42.7089 -75.1953 97° East 409 471 17,800 -1,680 Descending Boston Center
10:20AM 42.6936 -75.0503 98° East 398 458 16,100 -1,740 Descending Boston Center
10:21AM 42.6778 -74.9086 99° East 387 445 14,400 -1,740 Descending Boston Center
10:22AM 42.6642 -74.7725 98° East 376 433 12,700 -1,680 Descending Boston Center
10:23AM 42.6478 -74.6475 100° East 365 420 11,100 -900 Descending Boston Center
10:24AM 42.6317 -74.5058 99° East 352 405 10,900 -600 Descending Boston Center
10:25AM 42.6231 -74.4067 97° East 321 369 9,900 -1,380 Descending Boston Center
10:26AM 42.6103 -74.2936 99° East 288 331 8,200 -1,620 Descending Boston Center
10:27AM 42.5994 -74.2031 99° East 275 316 6,700 -1,860 Descending Boston Center
10:28AM 42.5864 -74.0869 99° East 275 316 4,500 -1,440 Descending Boston Center
10:29AM 42.5794 -73.9994 96° East 275 316 3,600 -540 Descending Boston Center
10:30AM 42.5661 -73.8892 99° East 250 288 3,400 -240 Descending Boston Center